This is the latest recevied weather packets stored in our database for station/object KDEQ. If no packets are shown the sender has not sent any weather packets the latest 1 day(s).
| Time | Temp. | Humidity | Pressure | Rain* | Wind** | Luminosity | Snow |
|---|---|---|---|---|---|---|---|
| 1778037811 | 21.67° C | 100% | 1005.4 hPa | - | - | - | - |
| 1778037207 | 21.67° C | 100% | 1005.4 hPa | - | - | - | - |
| 1778034208 | 25° C | 83% | 1004.4 hPa | - | - | - | - |
| 1778033608 | 25° C | 83% | 1004.4 hPa | - | - | - | - |
| 1778033008 | 25° C | 83% | 1004.4 hPa | - | - | - | - |
| 1778032408 | 25° C | 83% | 1004.4 hPa | - | - | - | - |
| 1778031208 | 25° C | 83% | 1004.4 hPa | - | - | - | - |
| 1778030606 | 25° C | 83% | 1004.4 hPa | - | - | - | - |
| 1778030009 | 25° C | 83% | 1004.4 hPa | - | - | - | - |
| 1778029406 | 25° C | 83% | 1004.4 hPa | - | - | - | - |
| 1778028809 | 25.56° C | 78% | 1003.7 hPa | - | - | - | - |
| 1778028207 | 25.56° C | 78% | 1003.7 hPa | - | - | - | - |
| 1778027006 | 25.56° C | 78% | 1003.7 hPa | - | - | - | - |
| 1778026412 | 25.56° C | 78% | 1003.7 hPa | - | - | - | - |
| 1778025210 | 25.56° C | 74% | 1003.7 hPa | - | - | - | - |
| 1778022327 | 25.56° C | 74% | 1003.7 hPa | - | - | - | - |
| 1778021007 | 26.67° C | 69% | 1003.7 hPa | - | - | - | - |
| 1778020408 | 26.67° C | 69% | 1003.7 hPa | - | - | - | - |
| 1778017411 | 25.56° C | 74% | 1004.4 hPa | - | - | - | - |
| 1778016207 | 25.56° C | 74% | 1004.4 hPa | - | - | - | - |
| 1778014407 | 26.67° C | 69% | 1004.4 hPa | - | - | - | - |
| 1778013811 | 26.67° C | 69% | 1004.4 hPa | - | - | - | - |
| 1778012613 | 26.67° C | 69% | 1004.4 hPa | - | - | - | - |
| 1778010810 | 25° C | 78% | 1004.7 hPa | - | - | - | - |
* Rain since midnight (hover to see other rain measurements)
** Current wind speed in m/s (hover to see current wind gust speed)